KBCT/BCT METAR and TAF weather

Enter ICAO airport designator
Station Type Date Time Source
KBCT METAR 2022/01/29 03:53 UTC NOAA

KBCT 290353Z 30010G20KT 10SM BKN070 19/14 A2997


Station Type Date Time Source
KBCT Decoded METAR 2022/01/29 03:53 UTC NOAA

Boca Raton, Boca Raton Airport, FL, United States (KBCT) 26-22-43N 080-06-28W
Jan 28, 2022 - 10:53 PM EST / 2022.01.29 0353 UTC
Wind: from the WNW (300 degrees) at 12 MPH (10 KT) gusting to 23 MPH (20 KT):0
Visibility: 10 mile(s):0
Sky conditions: mostly cloudy
Temperature: 66 F (19 C)
Dew Point: 57 F (14 C)
Relative Humidity: 72%
Pressure (altimeter): 29.97 in. Hg (1014 hPa)
ob: KBCT 290353Z 30010G20KT 10SM BKN070 19/14 A2997
cycle: 4

Station Type Date Time Source
KBCT TAF 2020/02/03 18:20 UTC NOAA

TAF KBCT 031720Z 0318/0418 12005KT P6SM SKC
FM040000 VRB03KT P6SM SKC
FM041400 16011KT P6SM FEW030

Example: see airport list